Portada
METAR-TAF:

METAR-TAF

Aeroports :

Topcliffe, Anglaterra

latitud: 54-12N, longitud: 001-23W, altitud: 28 m

Observació

L'informe es va fer fa 31 minuts, a les 20:50 UTC
Vent 6 kt del Est/Sud-Est
Temperatura 16°C
Humitat 77%
Pressió 1017 hPa
Visibilitat 10 km o més

METAR: EGXZ 242050Z AUTO 12006KT 9999 SCT220/// 16/12 Q1017

Hora: 22:21 (21:21 UTC)


TAF: manca

Observacions i pronòstics meteorològics de més de 4000 aeroports (METAR i TAF).

Les estacions disponibles són els punts grocs i vermells al mapa.

Posi el ratolí al punt desitjat per veure el nom de l'estació.

Feu clic per veure les observacions i els pronòstics meteorològics.

Per canviar el mapa: feu clic els botons verds amb una creu de color negre per apropar; al botó verd amb un guió per allunyar la imatge; o en les fletxes verdes per a mapes adjacents.


METAR-TAF: